Time;durP1;ratioP1;P1;durP2;ratioP2;P2;SDS_P1;SDS_P2;PMS_P1;PMS_P2;Temp;Humidity;BMP_temperature;BMP_pressure;BME280_temperature;BME280_humidity;BME280_pressure;Samples;Min_cycle;Max_cycle;Signal;HPM_P1;HPM_P2
2023/05/28 00:01:57;;;;;;;10.17;9.00;;;12.10;99.90;;;;;;4928934;29;20298;-75
2023/05/28 00:04:25;;;;;;;11.30;9.17;;;12.10;99.90;;;;;;4920998;29;20223;-77
2023/05/28 00:06:53;;;;;;;10.20;7.13;;;12.10;99.90;;;;;;4929055;29;20659;-76
2023/05/28 00:09:20;;;;;;;11.23;8.30;;;12.10;99.90;;;;;;4924371;29;20196;-76
2023/05/28 00:11:46;;;;;;;9.83;7.27;;;12.00;99.90;;;;;;4929118;29;20227;-76
2023/05/28 00:14:15;;;;;;;12.13;8.40;;;12.00;99.90;;;;;;4924679;29;20226;-76
2023/05/28 00:16:44;;;;;;;11.00;8.33;;;12.00;99.90;;;;;;4928999;29;20671;-76
2023/05/28 00:19:11;;;;;;;11.23;9.33;;;12.00;99.90;;;;;;4925921;29;20208;-76
2023/05/28 00:21:38;;;;;;;10.43;9.40;;;12.00;99.90;;;;;;4929446;29;20206;-76
2023/05/28 00:24:05;;;;;;;11.13;9.97;;;11.90;99.90;;;;;;4927207;29;20215;-76
2023/05/28 00:26:32;;;;;;;12.63;9.27;;;12.00;99.90;;;;;;4926283;29;20567;-76
2023/05/28 00:28:59;;;;;;;11.73;9.57;;;11.90;99.90;;;;;;4932668;29;20205;-75
2023/05/28 00:31:27;;;;;;;11.83;8.93;;;11.90;99.90;;;;;;4942774;28;20206;-76
2023/05/28 00:33:54;;;;;;;12.37;9.47;;;11.90;99.90;;;;;;4932833;29;20274;-76
2023/05/28 00:36:21;;;;;;;10.50;9.40;;;11.80;99.90;;;;;;4919208;29;20203;-76
2023/05/28 00:38:48;;;;;;;14.43;9.87;;;11.80;99.90;;;;;;4916556;29;20694;-76
2023/05/28 00:41:20;;;;;;;12.80;10.43;;;11.70;99.90;;;;;;4922087;29;20746;-76
2023/05/28 00:43:47;;;;;;;12.70;8.83;;;11.60;99.90;;;;;;4920566;29;20223;-76
2023/05/28 00:46:16;;;;;;;12.63;9.07;;;11.60;99.90;;;;;;4916401;29;20222;-76
2023/05/28 00:48:45;;;;;;;13.63;9.37;;;11.60;99.90;;;;;;4916136;29;20202;-75
2023/05/28 00:51:13;;;;;;;12.67;8.77;;;11.60;99.90;;;;;;4910362;29;20625;-76
2023/05/28 00:53:41;;;;;;;13.10;8.97;;;11.50;99.90;;;;;;4916390;29;20257;-76
2023/05/28 00:56:09;;;;;;;12.43;9.23;;;11.50;99.90;;;;;;4919132;29;20195;-76
2023/05/28 00:58:39;;;;;;;11.13;9.17;;;11.40;99.90;;;;;;4920724;29;20218;-77
2023/05/28 01:01:06;;;;;;;14.87;9.80;;;11.40;99.90;;;;;;4916238;29;20208;-76
2023/05/28 01:03:37;;;;;;;11.43;9.20;;;11.40;99.90;;;;;;4916114;29;20319;-76
2023/05/28 01:06:09;;;;;;;12.13;9.07;;;11.40;99.90;;;;;;4915968;29;20217;-77
2023/05/28 01:08:37;;;;;;;14.73;9.13;;;11.40;99.90;;;;;;4935713;29;20325;-76
2023/05/28 01:11:04;;;;;;;11.10;8.60;;;11.30;99.90;;;;;;4917443;29;20206;-76
2023/05/28 01:13:31;;;;;;;13.47;10.13;;;11.30;99.90;;;;;;4915714;29;20649;-76
2023/05/28 01:15:58;;;;;;;14.73;10.00;;;11.20;99.90;;;;;;4915772;29;20265;-77
2023/05/28 01:18:27;;;;;;;14.33;10.17;;;11.20;99.90;;;;;;4915709;29;20588;-76
2023/05/28 01:20:54;;;;;;;15.07;9.93;;;11.20;99.90;;;;;;4912610;29;20193;-76
2023/05/28 01:23:28;;;;;;;12.73;10.00;;;11.10;99.90;;;;;;4925383;29;20231;-76
2023/05/28 01:25:59;;;;;;;11.37;8.70;;;11.10;99.90;;;;;;4915570;29;20580;-76
2023/05/28 01:28:25;;;;;;;12.23;9.00;;;11.10;99.90;;;;;;4909980;29;20204;-76
2023/05/28 01:30:53;;;;;;;14.77;9.00;;;11.00;99.90;;;;;;4915960;29;20209;-76
2023/05/28 01:33:22;;;;;;;17.97;10.50;;;11.00;99.90;;;;;;4915599;29;20222;-75
2023/05/28 01:35:51;;;;;;;13.07;9.70;;;11.00;99.90;;;;;;4914430;29;20286;-77
2023/05/28 01:38:21;;;;;;;10.63;8.87;;;10.90;99.90;;;;;;4923288;29;20209;-76
2023/05/28 01:40:49;;;;;;;12.20;10.13;;;10.90;99.90;;;;;;4915402;29;20206;-76
2023/05/28 01:43:18;;;;;;;13.93;10.53;;;10.80;99.90;;;;;;4915583;29;20567;-76
2023/05/28 01:45:45;;;;;;;15.97;8.90;;;10.80;99.90;;;;;;4915226;29;20254;-78
2023/05/28 01:48:12;;;;;;;12.77;8.67;;;10.80;99.90;;;;;;4915474;29;20257;-76
2023/05/28 01:50:39;;;;;;;11.00;6.93;;;10.70;99.90;;;;;;4915503;29;20221;-77
2023/05/28 01:53:06;;;;;;;12.40;8.20;;;10.70;99.90;;;;;;4916614;29;20273;-76
2023/05/28 01:55:33;;;;;;;12.57;7.50;;;10.70;99.90;;;;;;4915141;29;20223;-76
2023/05/28 01:58:00;;;;;;;13.23;8.20;;;10.70;99.90;;;;;;4924344;29;20301;-76
2023/05/28 02:00:29;;;;;;;11.93;8.13;;;10.70;99.90;;;;;;4915221;29;20264;-76
2023/05/28 02:02:56;;;;;;;13.00;8.03;;;10.70;99.90;;;;;;4915588;29;20605;-76
2023/05/28 02:05:23;;;;;;;10.17;6.93;;;10.60;99.90;;;;;;4918948;29;20213;-77
2023/05/28 02:07:49;;;;;;;14.23;8.33;;;10.60;99.90;;;;;;4918089;29;20205;-76
2023/05/28 02:10:16;;;;;;;12.63;7.33;;;10.60;99.90;;;;;;4915024;29;20202;-76
2023/05/28 02:12:43;;;;;;;11.30;6.77;;;10.60;99.90;;;;;;4925585;29;20226;-76
2023/05/28 02:15:11;;;;;;;10.10;7.13;;;10.50;99.90;;;;;;4930622;29;20212;-76
2023/05/28 02:17:39;;;;;;;10.20;6.90;;;10.50;99.90;;;;;;4923464;29;20808;-76
2023/05/28 02:20:07;;;;;;;14.40;7.80;;;10.40;99.90;;;;;;4930663;29;20213;-76
2023/05/28 02:22:34;;;;;;;10.17;7.83;;;10.40;99.90;;;;;;4915434;29;20217;-77
2023/05/28 02:25:01;;;;;;;12.33;6.77;;;10.40;99.90;;;;;;4915778;29;20723;-76
2023/05/28 02:27:28;;;;;;;13.07;7.50;;;10.40;99.90;;;;;;4920917;29;20676;-76
2023/05/28 02:29:54;;;;;;;11.40;7.60;;;10.30;99.90;;;;;;4915766;29;20200;-76
2023/05/28 02:32:22;;;;;;;9.70;7.23;;;10.30;99.90;;;;;;4920971;29;20215;-76
2023/05/28 02:34:54;;;;;;;10.17;7.10;;;10.30;99.90;;;;;;4917723;29;20224;-76
2023/05/28 02:37:23;;;;;;;9.87;7.37;;;10.30;99.90;;;;;;4931866;29;20204;-75
2023/05/28 02:39:50;;;;;;;10.03;7.50;;;10.30;99.90;;;;;;4914836;29;20200;-76
2023/05/28 02:42:18;;;;;;;12.70;7.43;;;10.30;99.90;;;;;;4914544;29;20299;-77
2023/05/28 02:44:44;;;;;;;11.63;7.73;;;10.30;99.90;;;;;;4914606;29;20626;-77
2023/05/28 02:47:12;;;;;;;11.70;7.20;;;10.30;99.90;;;;;;4915220;29;20288;-76
2023/05/28 02:49:38;;;;;;;12.83;7.37;;;10.20;99.90;;;;;;4914548;29;20206;-76
2023/05/28 02:52:07;;;;;;;13.87;7.77;;;10.20;99.90;;;;;;4913135;29;20206;-76
2023/05/28 02:54:43;;;;;;;11.23;8.20;;;10.10;99.90;;;;;;4914381;29;20271;-77
2023/05/28 02:57:10;;;;;;;12.03;7.90;;;10.10;99.90;;;;;;4915966;29;20276;-79
2023/05/28 02:59:37;;;;;;;13.03;7.33;;;10.10;99.90;;;;;;4913869;29;20192;-80
2023/05/28 03:02:05;;;;;;;12.37;8.90;;;10.10;99.90;;;;;;4916571;29;20331;-78
2023/05/28 03:04:31;;;;;;;13.10;8.80;;;10.10;99.90;;;;;;4911406;29;20573;-78
2023/05/28 03:06:59;;;;;;;14.13;9.87;;;10.10;99.90;;;;;;4932046;29;20605;-79
2023/05/28 03:09:28;;;;;;;11.87;8.93;;;10.10;99.90;;;;;;4927522;29;20681;-78
2023/05/28 03:11:55;;;;;;;12.50;9.57;;;10.10;99.90;;;;;;4929243;29;20201;-78
2023/05/28 03:14:22;;;;;;;13.70;9.13;;;10.00;99.90;;;;;;4924301;29;20219;-79
2023/05/28 03:16:49;;;;;;;12.73;9.70;;;10.00;99.90;;;;;;4926006;29;20204;-80
2023/05/28 03:19:23;;;;;;;10.03;8.40;;;10.00;99.90;;;;;;4917187;29;20203;-79
2023/05/28 03:21:50;;;;;;;9.50;6.97;;;9.90;99.90;;;;;;4926296;29;20252;-80
2023/05/28 03:24:19;;;;;;;11.77;9.00;;;9.90;99.90;;;;;;4922170;29;20655;-79
2023/05/28 03:26:52;;;;;;;11.53;10.37;;;9.90;99.90;;;;;;4926465;29;20234;-78
2023/05/28 03:29:23;;;;;;;10.63;9.53;;;9.90;99.90;;;;;;4914433;29;20251;-81
2023/05/28 03:32:16;;;;;;;14.03;10.90;;;9.90;99.90;;;;;;4918779;29;20210;-79
2023/05/28 03:34:43;;;;;;;11.40;10.17;;;9.80;99.90;;;;;;4917312;29;20241;-81
2023/05/28 03:37:10;;;;;;;16.93;10.27;;;9.80;99.90;;;;;;4915814;29;20900;-80
2023/05/28 03:39:38;;;;;;;14.83;11.03;;;9.80;99.90;;;;;;4917205;29;20205;-80
2023/05/28 03:42:07;;;;;;;11.30;9.97;;;9.80;99.90;;;;;;4916891;29;20207;-80
2023/05/28 03:44:35;;;;;;;12.67;9.90;;;9.80;99.90;;;;;;4915672;29;20236;-79
2023/05/28 03:47:02;;;;;;;12.53;9.87;;;9.80;99.90;;;;;;4930803;29;20260;-80
2023/05/28 03:49:29;;;;;;;12.10;10.00;;;9.80;99.90;;;;;;4932856;29;20218;-80
2023/05/28 03:51:56;;;;;;;11.07;9.70;;;9.90;99.90;;;;;;4918233;29;20738;-80
2023/05/28 03:54:25;;;;;;;12.27;10.20;;;9.90;99.90;;;;;;4915999;29;20767;-78
2023/05/28 03:56:52;;;;;;;11.07;9.57;;;10.00;99.90;;;;;;4918951;29;20197;-77
2023/05/28 03:59:22;;;;;;;10.20;8.20;;;10.00;99.90;;;;;;4919192;29;20722;-80
2023/05/28 04:01:49;;;;;;;11.00;9.00;;;10.10;99.90;;;;;;4922060;29;20209;-78
2023/05/28 04:04:16;;;;;;;12.87;8.83;;;10.10;99.90;;;;;;4921508;29;20675;-78
2023/05/28 04:06:43;;;;;;;12.23;9.37;;;10.10;99.90;;;;;;4926451;29;20203;-77
2023/05/28 04:09:10;;;;;;;9.73;8.30;;;10.10;99.90;;;;;;4925167;29;20211;-78
2023/05/28 04:11:39;;;;;;;11.27;8.70;;;10.10;99.90;;;;;;4929496;29;20207;-78
2023/05/28 04:14:12;;;;;;;12.60;7.90;;;10.10;99.90;;;;;;4947434;29;20231;-79
2023/05/28 04:16:41;;;;;;;9.87;7.87;;;10.10;99.90;;;;;;4924023;29;20639;-79
2023/05/28 04:19:08;;;;;;;11.07;8.07;;;10.20;99.90;;;;;;4933183;29;20207;-77
2023/05/28 04:21:35;;;;;;;10.27;7.20;;;10.20;99.90;;;;;;4950395;29;20204;-79
2023/05/28 04:24:02;;;;;;;8.53;6.63;;;10.30;99.90;;;;;;4924347;29;20730;-77
2023/05/28 04:26:29;;;;;;;9.87;6.20;;;10.40;99.90;;;;;;4925704;29;20204;-79
2023/05/28 04:28:56;;;;;;;8.13;6.50;;;10.60;99.90;;;;;;4926535;29;20701;-80
2023/05/28 04:31:26;;;;;;;8.10;6.27;;;10.70;99.90;;;;;;4926772;29;20287;-80
2023/05/28 04:33:55;;;;;;;8.53;6.23;;;10.80;99.90;;;;;;4922361;29;20225;-78
2023/05/28 04:36:29;;;;;;;8.23;5.70;;;10.90;99.90;;;;;;4922111;29;20226;-78
2023/05/28 04:38:56;;;;;;;9.37;6.70;;;11.10;99.90;;;;;;4922293;29;20665;-77
2023/05/28 04:41:25;;;;;;;9.00;6.60;;;11.20;99.90;;;;;;4921179;29;20240;-78
2023/05/28 04:43:52;;;;;;;9.60;6.27;;;11.40;99.90;;;;;;4934799;29;20277;-77
2023/05/28 04:46:19;;;;;;;8.53;6.60;;;11.60;99.90;;;;;;4921248;29;20280;-79
2023/05/28 04:48:47;;;;;;;9.50;6.50;;;11.80;99.90;;;;;;4939412;29;20234;-79
2023/05/28 04:51:15;;;;;;;7.30;5.70;;;12.00;99.90;;;;;;4926553;29;20282;-80
2023/05/28 04:53:42;;;;;;;8.30;6.00;;;12.20;99.90;;;;;;4925567;29;20215;-80
2023/05/28 04:56:10;;;;;;;8.53;6.27;;;12.50;99.90;;;;;;4922657;29;20722;-80
2023/05/28 04:58:37;;;;;;;7.93;6.03;;;12.70;99.90;;;;;;4921861;29;20212;-79
2023/05/28 05:01:04;;;;;;;8.10;6.10;;;12.90;99.90;;;;;;4923769;29;20236;-79
2023/05/28 05:03:32;;;;;;;9.27;6.53;;;12.90;99.90;;;;;;4923208;29;20252;-80
2023/05/28 05:05:59;;;;;;;9.40;6.70;;;13.00;99.90;;;;;;4923757;29;20568;-79
2023/05/28 05:08:27;;;;;;;9.57;5.87;;;13.20;99.90;;;;;;4923679;29;20200;-80
2023/05/28 05:10:54;;;;;;;8.30;6.40;;;13.30;99.90;;;;;;4917721;29;20298;-80
2023/05/28 05:13:21;;;;;;;8.30;6.10;;;13.40;99.90;;;;;;4920248;29;20250;-79
2023/05/28 05:15:48;;;;;;;8.40;5.80;;;13.50;99.90;;;;;;4919820;29;20617;-77
2023/05/28 05:18:15;;;;;;;7.57;5.60;;;13.70;99.90;;;;;;4919387;29;20209;-78
2023/05/28 05:20:42;;;;;;;9.93;6.43;;;13.90;99.90;;;;;;4920328;29;20196;-78
2023/05/28 05:23:09;;;;;;;12.87;6.47;;;14.00;99.90;;;;;;4919178;29;20221;-77
2023/05/28 05:25:37;;;;;;;9.70;5.87;;;14.20;99.90;;;;;;4923987;29;20203;-79
2023/05/28 05:28:04;;;;;;;10.73;5.90;;;14.30;99.90;;;;;;4921909;29;20204;-78
2023/05/28 05:30:32;;;;;;;8.50;5.67;;;14.30;99.90;;;;;;4918614;29;20286;-79
2023/05/28 05:32:59;;;;;;;7.87;5.03;;;14.50;99.90;;;;;;4929601;29;20234;-81
2023/05/28 05:35:29;;;;;;;9.27;6.53;;;14.50;99.90;;;;;;4921633;29;20218;-80
2023/05/28 05:38:22;;;;;;;8.43;5.63;;;14.60;99.90;;;;;;4923530;29;20218;-81
2023/05/28 05:41:04;;;;;;;7.73;5.70;;;15.00;99.90;;;;;;4924449;29;20297;-79
2023/05/28 05:43:49;;;;;;;8.23;5.67;;;15.20;99.90;;;;;;4924731;29;20288;-83
2023/05/28 05:46:16;;;;;;;7.80;5.90;;;15.70;99.90;;;;;;4916918;29;20254;-76
2023/05/28 05:48:43;;;;;;;7.67;5.83;;;16.20;99.90;;;;;;4916782;29;20196;-77
2023/05/28 05:51:16;;;;;;;9.03;5.87;;;16.80;99.90;;;;;;4914395;29;20769;-77
2023/05/28 05:53:43;;;;;;;7.83;5.63;;;17.40;99.90;;;;;;4914622;29;20223;-77
2023/05/28 05:56:11;;;;;;;7.87;5.80;;;17.80;99.90;;;;;;4915643;29;20225;-77
2023/05/28 05:58:39;;;;;;;8.73;5.77;;;18.20;99.90;;;;;;4914619;29;20193;-77
2023/05/28 06:01:06;;;;;;;10.67;5.53;;;18.50;99.90;;;;;;4914916;29;20720;-76
2023/05/28 06:03:33;;;;;;;8.20;6.00;;;18.80;99.90;;;;;;4915184;29;20230;-77
2023/05/28 06:06:11;;;;;;;9.77;6.00;;;19.00;99.90;;;;;;4925741;29;20570;-77
2023/05/28 06:08:54;;;;;;;8.10;6.07;;;19.30;99.90;;;;;;4921016;29;20683;-77
2023/05/28 06:11:45;;;;;;;8.40;5.33;;;19.40;99.90;;;;;;4929954;29;20204;-77
2023/05/28 06:14:12;;;;;;;9.13;6.10;;;19.30;99.90;;;;;;4930251;29;20313;-77
2023/05/28 06:16:39;;;;;;;8.57;5.67;;;19.10;99.90;;;;;;4926684;29;20321;-77
2023/05/28 06:19:07;;;;;;;8.40;5.63;;;18.90;99.90;;;;;;4924892;29;20204;-77
2023/05/28 06:21:36;;;;;;;8.60;5.63;;;18.90;99.90;;;;;;4925840;29;20663;-77
2023/05/28 06:24:05;;;;;;;9.73;6.33;;;19.20;99.90;;;;;;4916758;29;20243;-77
2023/05/28 06:26:32;;;;;;;7.50;5.67;;;19.50;99.90;;;;;;4922107;29;20198;-77
2023/05/28 06:29:01;;;;;;;11.33;6.90;;;19.70;99.90;;;;;;4920529;29;20214;-77
2023/05/28 06:31:29;;;;;;;10.90;5.97;;;20.00;99.90;;;;;;4916787;29;20215;-77
2023/05/28 06:33:56;;;;;;;7.50;5.87;;;20.20;99.90;;;;;;4920237;29;20220;-77
2023/05/28 06:36:23;;;;;;;9.20;5.73;;;20.50;99.90;;;;;;4916257;29;20306;-77
2023/05/28 06:38:50;;;;;;;9.03;5.83;;;20.80;99.90;;;;;;4916401;29;20672;-78
2023/05/28 06:41:17;;;;;;;7.70;5.90;;;20.70;99.90;;;;;;4918834;29;20207;-77
2023/05/28 06:43:49;;;;;;;11.70;6.13;;;20.90;99.90;;;;;;4916164;29;20220;-77
2023/05/28 06:46:43;;;;;;;7.67;5.33;;;21.10;99.90;;;;;;4909754;29;20562;-78
2023/05/28 06:49:10;;;;;;;7.70;5.27;;;21.50;99.90;;;;;;4916195;29;20617;-77
2023/05/28 06:51:37;;;;;;;10.00;5.77;;;21.90;99.90;;;;;;4916522;29;20202;-77
2023/05/28 06:54:04;;;;;;;8.60;5.43;;;21.90;99.90;;;;;;4919201;29;20276;-77
2023/05/28 06:56:33;;;;;;;9.97;6.07;;;21.80;99.90;;;;;;4916674;29;20618;-78
2023/05/28 06:59:22;;;;;;;8.77;5.67;;;22.30;99.90;;;;;;4917099;29;20598;-78
2023/05/28 07:02:11;;;;;;;10.60;5.73;;;22.50;99.90;;;;;;4917446;29;20208;-77
2023/05/28 07:05:09;;;;;;;8.60;5.27;;;22.70;99.90;;;;;;4916200;29;20282;-77
2023/05/28 07:07:38;;;;;;;7.87;5.60;;;22.70;99.90;;;;;;4923232;29;20263;-77
2023/05/28 07:10:06;;;;;;;8.43;5.13;;;22.70;99.90;;;;;;4916611;29;20208;-78
2023/05/28 07:12:33;;;;;;;9.03;5.53;;;22.90;99.90;;;;;;4912584;29;20220;-77
2023/05/28 07:15:01;;;;;;;8.37;5.73;;;23.10;99.90;;;;;;4915902;29;20203;-78
2023/05/28 07:17:32;;;;;;;7.30;5.37;;;23.30;99.90;;;;;;4915875;29;20813;-78
2023/05/28 07:19:59;;;;;;;7.43;5.03;;;23.50;99.90;;;;;;4916212;29;20200;-77
2023/05/28 07:22:42;;;;;;;7.73;5.57;;;23.30;99.90;;;;;;4916293;29;20223;-77
2023/05/28 07:25:09;;;;;;;9.23;5.23;;;23.20;99.90;;;;;;4926155;29;20215;-77
2023/05/28 07:27:36;;;;;;;10.67;5.70;;;23.30;99.90;;;;;;4923357;29;20206;-78
2023/05/28 07:30:04;;;;;;;8.00;5.50;;;23.30;99.90;;;;;;4914845;29;20682;-77
2023/05/28 07:32:33;;;;;;;7.93;5.57;;;23.40;99.90;;;;;;4915512;29;20240;-78
2023/05/28 07:35:00;;;;;;;9.17;5.93;;;23.90;99.90;;;;;;4918285;29;20248;-77
2023/05/28 07:37:27;;;;;;;8.23;5.27;;;24.00;99.90;;;;;;4919592;29;20275;-78
2023/05/28 07:39:54;;;;;;;7.43;6.50;;;23.60;99.90;;;;;;4919283;29;20200;-78
2023/05/28 07:42:21;;;;;;;8.03;5.57;;;23.80;99.90;;;;;;4919598;29;20207;-78
2023/05/28 07:44:56;;;;;;;9.57;6.67;;;24.00;99.90;;;;;;4919834;29;20275;-78
2023/05/28 07:47:23;;;;;;;10.57;7.23;;;23.30;99.90;;;;;;4919346;29;20207;-77
2023/05/28 07:50:10;;;;;;;11.07;6.60;;;23.30;99.90;;;;;;4919791;29;20207;-78
2023/05/28 07:53:10;;;;;;;8.17;5.60;;;23.60;99.90;;;;;;4914931;29;20294;-78
2023/05/28 07:55:37;;;;;;;7.50;5.23;;;23.90;99.90;;;;;;4920468;29;20295;-77
2023/05/28 07:58:05;;;;;;;8.00;5.37;;;24.00;99.90;;;;;;4920643;29;20211;-78
2023/05/28 08:00:33;;;;;;;8.80;7.43;;;24.30;99.90;;;;;;4919644;29;20943;-78
2023/05/28 08:03:03;;;;;;;10.50;8.00;;;23.90;99.90;;;;;;4919706;29;20231;-77
2023/05/28 08:05:39;;;;;;;9.30;7.10;;;24.10;99.90;;;;;;4921467;29;20199;-78
2023/05/28 08:08:07;;;;;;;8.57;6.43;;;24.60;99.90;;;;;;4919370;29;20200;-78
2023/05/28 08:10:33;;;;;;;9.60;6.40;;;24.80;99.90;;;;;;4920885;29;20196;-78
2023/05/28 08:13:01;;;;;;;8.83;5.10;;;24.80;99.90;;;;;;4919398;29;20283;-77
2023/05/28 08:15:28;;;;;;;9.00;4.90;;;24.90;99.90;;;;;;4918922;29;20291;-77
2023/05/28 08:17:57;;;;;;;7.70;5.00;;;24.90;99.90;;;;;;4919225;29;20224;-78
2023/05/28 08:20:26;;;;;;;7.80;4.90;;;24.60;99.90;;;;;;4922619;29;20200;-77
2023/05/28 08:22:58;;;;;;;7.83;4.50;;;24.90;99.90;;;;;;4919407;29;20647;-78
2023/05/28 08:25:25;;;;;;;7.87;5.07;;;25.30;99.90;;;;;;4925324;29;20210;-77
2023/05/28 08:28:02;;;;;;;9.60;4.90;;;25.30;99.90;;;;;;4928848;29;20298;-78
2023/05/28 08:30:29;;;;;;;6.27;4.83;;;25.00;99.90;;;;;;4926792;29;20243;-77
2023/05/28 08:33:01;;;;;;;7.43;4.50;;;25.10;99.90;;;;;;4919050;29;20248;-78
2023/05/28 08:35:28;;;;;;;8.60;4.80;;;25.50;99.90;;;;;;4919305;29;20654;-78
2023/05/28 08:37:57;;;;;;;9.50;5.20;;;25.40;99.90;;;;;;4919360;29;20310;-78
2023/05/28 08:40:35;;;;;;;7.40;4.47;;;25.30;99.90;;;;;;4918893;29;20223;-77
2023/05/28 08:43:03;;;;;;;10.77;5.53;;;25.50;99.90;;;;;;4919062;29;20727;-78
2023/05/28 08:45:31;;;;;;;8.80;5.10;;;25.50;99.90;;;;;;4919110;29;20263;-78
2023/05/28 08:47:58;;;;;;;8.53;5.00;;;25.60;99.90;;;;;;4919775;29;20192;-77
2023/05/28 08:50:27;;;;;;;8.47;5.20;;;25.80;99.90;;;;;;4919214;29;20255;-78
2023/05/28 08:53:08;;;;;;;10.27;5.20;;;26.30;99.90;;;;;;4915108;29;20231;-78
2023/05/28 08:55:35;;;;;;;9.03;5.20;;;26.30;99.90;;;;;;4936335;29;20215;-78
2023/05/28 08:58:13;;;;;;;8.53;4.70;;;26.30;99.90;;;;;;4920044;29;20363;-78
2023/05/28 09:00:40;;;;;;;8.27;4.53;;;26.20;99.90;;;;;;4919400;29;20215;-78
2023/05/28 09:03:26;;;;;;;6.43;4.30;;;26.20;99.90;;;;;;4920093;29;20617;-78
2023/05/28 09:05:54;;;;;;;8.97;5.03;;;26.50;99.90;;;;;;4925940;29;20207;-78
2023/05/28 09:08:24;;;;;;;7.57;4.60;;;26.30;99.90;;;;;;4921062;29;20208;-78
2023/05/28 09:10:52;;;;;;;9.77;4.90;;;26.20;99.90;;;;;;4919616;29;20208;-78
2023/05/28 09:13:21;;;;;;;8.20;5.40;;;26.10;99.90;;;;;;4921269;29;20706;-78
2023/05/28 09:15:51;;;;;;;7.57;5.10;;;26.30;99.90;;;;;;4919016;29;20206;-78
2023/05/28 09:18:20;;;;;;;10.00;6.00;;;26.30;99.90;;;;;;4919047;29;20219;-78
2023/05/28 09:20:48;;;;;;;9.10;6.90;;;26.30;99.90;;;;;;4919056;29;20204;-78
2023/05/28 09:23:17;;;;;;;9.80;6.60;;;26.70;99.90;;;;;;4919156;29;20223;-78
2023/05/28 09:26:15;;;;;;;9.13;6.10;;;26.80;99.90;;;;;;4918218;29;20702;-78
2023/05/28 09:28:51;;;;;;;10.50;7.03;;;27.10;99.90;;;;;;4919624;29;20683;-79
2023/05/28 09:31:45;;;;;;;7.50;6.00;;;27.20;99.90;;;;;;4914960;29;20226;-80
2023/05/28 09:41:33;;;;;;;7.73;5.17;;;27.20;99.60;;;;;;4839785;29;20217;-80
2023/05/28 09:44:02;;;;;;;8.37;4.90;;;26.80;99.70;;;;;;4889436;29;20231;-81
2023/05/28 09:46:30;;;;;;;11.57;7.07;;;26.10;99.90;;;;;;4919443;29;20219;-81
2023/05/28 09:48:58;;;;;;;9.60;5.13;;;26.30;99.90;;;;;;4920350;29;20736;-81
2023/05/28 09:51:28;;;;;;;8.40;5.77;;;26.40;99.90;;;;;;4920543;29;20718;-80
2023/05/28 09:53:58;;;;;;;6.53;4.57;;;26.80;99.90;;;;;;4918430;29;20580;-81
2023/05/28 09:56:31;;;;;;;8.23;5.07;;;27.00;99.60;;;;;;4927527;29;20282;-80
2023/05/28 09:58:59;;;;;;;6.90;4.30;;;27.00;99.30;;;;;;4919246;29;20607;-80
2023/05/28 10:01:32;;;;;;;9.93;5.80;;;27.10;99.90;;;;;;4927046;29;20215;-80
2023/05/28 10:04:03;;;;;;;8.90;5.17;;;27.30;99.40;;;;;;4933317;29;20230;-80
2023/05/28 10:06:31;;;;;;;8.07;4.93;;;27.30;99.90;;;;;;4928041;29;20210;-80
2023/05/28 10:09:00;;;;;;;10.17;4.73;;;27.50;99.30;;;;;;4932256;29;20199;-81
2023/05/28 10:11:31;;;;;;;11.77;4.77;;;27.00;98.20;;;;;;4936980;29;20207;-80
2023/05/28 10:13:58;;;;;;;6.67;4.27;;;26.70;99.50;;;;;;4926210;29;20565;-79
2023/05/28 10:16:26;;;;;;;6.50;4.30;;;26.80;99.10;;;;;;4918364;29;20215;-81
2023/05/28 10:18:55;;;;;;;8.37;4.80;;;27.00;99.90;;;;;;4923397;29;20747;-80
2023/05/28 10:21:22;;;;;;;10.23;4.73;;;26.80;99.50;;;;;;4930517;29;20226;-80
2023/05/28 10:23:49;;;;;;;8.40;5.33;;;26.80;98.00;;;;;;4923456;29;20309;-80
2023/05/28 10:26:18;;;;;;;13.90;5.67;;;26.90;99.80;;;;;;4928235;29;20219;-80
2023/05/28 10:28:46;;;;;;;8.00;4.57;;;26.70;99.90;;;;;;4923957;29;20754;-80
2023/05/28 10:31:13;;;;;;;9.50;4.90;;;26.60;98.40;;;;;;4950834;29;20216;-81
2023/05/28 10:33:41;;;;;;;8.27;4.20;;;26.60;99.90;;;;;;4931254;29;20242;-81
2023/05/28 10:36:11;;;;;;;11.17;4.87;;;26.40;99.80;;;;;;4935106;29;20293;-80
2023/05/28 10:38:44;;;;;;;7.07;4.43;;;26.20;99.60;;;;;;4933893;29;21230;-80
2023/05/28 10:41:11;;;;;;;8.70;4.20;;;26.00;99.10;;;;;;4945364;29;20211;-80
2023/05/28 10:43:43;;;;;;;8.67;4.73;;;26.00;99.20;;;;;;4933169;29;20224;-81
2023/05/28 10:46:12;;;;;;;8.13;5.23;;;26.00;99.00;;;;;;4932738;29;20713;-80
2023/05/28 10:48:40;;;;;;;9.37;7.23;;;25.40;98.60;;;;;;4922266;29;20427;-81
2023/05/28 10:51:07;;;;;;;11.13;6.80;;;25.50;98.80;;;;;;4934245;29;20260;-80
2023/05/28 10:53:34;;;;;;;9.77;6.70;;;25.50;98.00;;;;;;4916459;29;20259;-80
2023/05/28 10:56:02;;;;;;;7.83;6.00;;;25.60;99.90;;;;;;4914798;29;20263;-80
2023/05/28 10:58:34;;;;;;;8.43;6.73;;;25.80;99.30;;;;;;4924310;29;20634;-79
2023/05/28 11:01:04;;;;;;;6.45;4.35;;;25.40;98.80;;;;;;4927864;29;20481;-80
2023/05/28 11:03:42;;;;;;;11.20;5.63;;;25.20;99.20;;;;;;4930387;29;20584;-79
2023/05/28 11:06:11;;;;;;;8.93;5.60;;;24.80;98.80;;;;;;4928549;29;20659;-80
2023/05/28 11:08:40;;;;;;;7.87;6.00;;;25.10;98.90;;;;;;4930832;29;20210;-80
2023/05/28 11:11:07;;;;;;;6.20;3.90;;;25.20;98.80;;;;;;4928953;29;20479;-80
2023/05/28 11:13:35;;;;;;;6.07;4.63;;;25.30;99.80;;;;;;4931797;29;20509;-79
2023/05/28 11:16:08;;;;;;;6.70;4.43;;;25.50;97.90;;;;;;4932736;29;20210;-81
2023/05/28 11:18:35;;;;;;;7.50;4.40;;;25.50;99.00;;;;;;4934103;29;20223;-80
2023/05/28 11:21:08;;;;;;;8.53;4.50;;;25.30;98.60;;;;;;4942012;28;20200;-80
2023/05/28 11:23:37;;;;;;;8.20;4.40;;;25.20;98.80;;;;;;4926410;29;20227;-80
2023/05/28 11:26:06;;;;;;;8.40;4.63;;;25.40;98.70;;;;;;4925683;29;20255;-79
2023/05/28 11:28:48;;;;;;;8.10;4.80;;;25.40;97.30;;;;;;4928817;29;20200;-80
2023/05/28 11:31:15;;;;;;;11.47;7.10;;;25.30;96.50;;;;;;4927835;29;20658;-80
2023/05/28 11:33:41;;;;;;;7.83;6.10;;;25.20;97.40;;;;;;4932481;29;20677;-79
2023/05/28 11:36:14;;;;;;;6.70;4.07;;;25.20;96.00;;;;;;4931778;29;20283;-79
2023/05/28 11:38:41;;;;;;;9.50;6.60;;;25.20;96.30;;;;;;4927700;29;20232;-80
2023/05/28 11:41:07;;;;;;;8.43;4.63;;;25.20;96.90;;;;;;4925220;29;20207;-80
2023/05/28 11:43:34;;;;;;;6.03;4.30;;;25.30;96.20;;;;;;4934870;29;20220;-80
2023/05/28 11:46:02;;;;;;;11.07;7.00;;;25.20;97.00;;;;;;4948048;29;20211;-80
2023/05/28 11:48:29;;;;;;;5.97;3.90;;;25.10;96.40;;;;;;4925740;29;20218;-82
2023/05/28 11:51:01;;;;;;;8.07;4.30;;;25.00;96.20;;;;;;4922422;29;20238;-80
2023/05/28 11:53:40;;;;;;;7.70;4.33;;;25.10;97.30;;;;;;4920989;29;20332;-80
2023/05/28 11:56:09;;;;;;;8.63;4.70;;;25.10;95.90;;;;;;4934674;29;20202;-79
2023/05/28 11:58:37;;;;;;;7.97;4.67;;;25.10;96.30;;;;;;4921481;29;20248;-79
2023/05/28 12:01:04;;;;;;;5.53;4.10;;;25.10;96.00;;;;;;4933281;29;20213;-80
2023/05/28 12:03:31;;;;;;;7.80;4.10;;;25.20;96.70;;;;;;4931275;29;20235;-80
2023/05/28 12:06:06;;;;;;;8.63;4.47;;;25.00;95.60;;;;;;4928936;29;20199;-83
2023/05/28 12:08:33;;;;;;;8.13;4.03;;;25.00;96.10;;;;;;4927694;29;20203;-80
2023/05/28 12:11:02;;;;;;;7.67;4.53;;;25.00;95.70;;;;;;4925250;29;20655;-79
2023/05/28 12:13:34;;;;;;;5.77;3.93;;;25.00;96.20;;;;;;4927372;29;20234;-79
2023/05/28 12:16:09;;;;;;;7.73;4.20;;;24.90;95.90;;;;;;4915754;29;20300;-79
2023/05/28 12:18:41;;;;;;;8.80;4.50;;;24.80;96.50;;;;;;4930934;29;20230;-79
2023/05/28 12:21:11;;;;;;;7.40;4.10;;;24.80;96.70;;;;;;4933921;29;20275;-80
2023/05/28 12:23:38;;;;;;;9.47;6.67;;;24.60;94.90;;;;;;4919649;29;20220;-80
2023/05/28 12:26:10;;;;;;;8.80;6.50;;;24.60;94.30;;;;;;4924513;29;20229;-78
2023/05/28 12:28:39;;;;;;;8.57;5.93;;;24.70;95.70;;;;;;4932505;29;21823;-79
2023/05/28 12:31:07;;;;;;;9.37;4.10;;;24.60;94.30;;;;;;4935578;29;20678;-80
2023/05/28 12:33:34;;;;;;;8.80;7.00;;;24.60;95.70;;;;;;4927143;29;20220;-79
2023/05/28 12:36:00;;;;;;;7.10;6.37;;;24.60;95.30;;;;;;4931612;29;20259;-79
2023/05/28 12:38:27;;;;;;;10.97;4.80;;;24.70;96.30;;;;;;4925855;29;20594;-78
2023/05/28 12:40:54;;;;;;;7.13;5.50;;;24.50;95.50;;;;;;4929355;29;20234;-80
2023/05/28 12:43:22;;;;;;;6.60;5.40;;;24.50;95.90;;;;;;4935670;29;20227;-79
2023/05/28 12:45:49;;;;;;;8.43;5.70;;;24.60;95.90;;;;;;4933745;29;20203;-80
2023/05/28 12:48:16;;;;;;;8.23;5.63;;;24.70;95.50;;;;;;4952878;29;20670;-79
2023/05/28 12:50:43;;;;;;;7.73;6.43;;;24.70;96.60;;;;;;4933449;29;20670;-79
2023/05/28 12:53:10;;;;;;;9.43;6.53;;;24.80;95.20;;;;;;4926777;29;20234;-80
2023/05/28 12:55:37;;;;;;;6.87;5.60;;;24.70;93.80;;;;;;4926987;29;20214;-78
2023/05/28 12:58:03;;;;;;;9.53;5.97;;;24.50;94.40;;;;;;4933706;29;20254;-80
2023/05/28 13:00:31;;;;;;;8.70;7.90;;;24.30;93.80;;;;;;4935357;29;20255;-79
2023/05/28 13:02:59;;;;;;;8.80;7.03;;;24.30;95.80;;;;;;4933446;29;20233;-80